Time;durP1;ratioP1;P1;durP2;ratioP2;P2;SDS_P1;SDS_P2;PMS_P1;PMS_P2;Temp;Humidity;BMP_temperature;BMP_pressure;BME280_temperature;BME280_humidity;BME280_pressure;Samples;Min_cycle;Max_cycle;Signal;HPM_P1;HPM_P2
2022/06/19 00:00:33;;;;;;;2.72;0.70;;;17.10;64.80;;;;;;4996000;28;20038;-76
2022/06/19 00:03:00;;;;;;;1.38;0.52;;;17.00;64.70;;;;;;5012128;28;20124;-76
2022/06/19 00:05:26;;;;;;;1.75;0.50;;;16.90;64.80;;;;;;5012323;28;20042;-76
2022/06/19 00:07:52;;;;;;;1.58;0.60;;;16.90;64.70;;;;;;5012529;28;20100;-76
2022/06/19 00:10:17;;;;;;;0.45;0.45;;;16.90;64.70;;;;;;5013133;28;20546;-76
2022/06/19 00:12:43;;;;;;;1.42;0.50;;;16.90;64.70;;;;;;5015398;28;20034;-76
2022/06/19 00:15:09;;;;;;;1.38;0.60;;;16.80;64.60;;;;;;4998404;28;20070;-76
2022/06/19 00:17:36;;;;;;;2.35;0.63;;;16.80;64.50;;;;;;5015662;28;20068;-76
2022/06/19 00:20:02;;;;;;;1.67;0.55;;;16.90;64.60;;;;;;5015043;28;20065;-75
2022/06/19 00:22:28;;;;;;;0.88;0.47;;;16.80;64.40;;;;;;4981506;28;20046;-76
2022/06/19 00:24:54;;;;;;;1.63;0.60;;;16.80;64.40;;;;;;5015535;28;20026;-75
2022/06/19 00:27:20;;;;;;;1.98;0.55;;;16.80;64.40;;;;;;5015504;28;20025;-76
2022/06/19 00:29:45;;;;;;;0.65;0.38;;;16.70;64.30;;;;;;5014593;28;20034;-76
2022/06/19 00:32:11;;;;;;;2.55;0.68;;;16.70;64.30;;;;;;4998335;28;20106;-75
2022/06/19 00:34:37;;;;;;;1.70;0.70;;;16.70;64.30;;;;;;5014092;28;20524;-75
2022/06/19 00:37:04;;;;;;;1.25;0.50;;;16.70;64.20;;;;;;5016204;28;20482;-75
2022/06/19 00:39:32;;;;;;;0.90;0.40;;;16.70;64.20;;;;;;5016248;28;20061;-76
2022/06/19 00:41:59;;;;;;;1.35;0.50;;;16.70;64.20;;;;;;5015393;28;20050;-75
2022/06/19 00:44:26;;;;;;;0.82;0.40;;;16.60;64.10;;;;;;4998456;28;20049;-75
2022/06/19 00:46:54;;;;;;;2.45;0.77;;;16.60;64.10;;;;;;4981486;28;20053;-75
2022/06/19 00:49:32;;;;;;;2.80;0.55;;;16.70;64.20;;;;;;5016848;28;20038;-75
2022/06/19 00:52:10;;;;;;;2.03;0.47;;;16.60;64.20;;;;;;5016189;28;20480;-75
2022/06/19 00:54:42;;;;;;;0.47;0.35;;;16.60;64.20;;;;;;5016525;28;20466;-76
2022/06/19 00:57:09;;;;;;;1.25;0.60;;;16.50;64.10;;;;;;4998811;28;20058;-75
2022/06/19 00:59:38;;;;;;;0.80;0.50;;;16.50;64.20;;;;;;5015735;28;20437;-75
2022/06/19 01:02:06;;;;;;;1.67;0.50;;;16.40;64.20;;;;;;4998852;28;20053;-76
2022/06/19 01:04:42;;;;;;;1.05;0.50;;;16.40;64.30;;;;;;5018203;28;20038;-76
2022/06/19 01:07:09;;;;;;;1.60;0.65;;;16.40;64.40;;;;;;5015277;28;20056;-75
2022/06/19 01:09:35;;;;;;;2.55;0.60;;;16.30;64.40;;;;;;4997424;28;20120;-76
2022/06/19 01:12:03;;;;;;;1.27;0.50;;;16.30;64.50;;;;;;5015000;28;20038;-76
2022/06/19 01:14:30;;;;;;;1.65;0.50;;;16.30;64.50;;;;;;4997576;28;20030;-76
2022/06/19 01:16:56;;;;;;;1.35;0.52;;;16.30;64.40;;;;;;5015449;28;20046;-76
2022/06/19 01:19:27;;;;;;;1.33;0.60;;;16.20;64.40;;;;;;4996483;28;20048;-75
2022/06/19 01:22:02;;;;;;;1.63;0.50;;;16.20;64.40;;;;;;5013402;28;20045;-76
2022/06/19 01:24:58;;;;;;;1.15;0.50;;;16.20;64.40;;;;;;5017082;28;20042;-76
2022/06/19 01:30:06;;;;;;;1.00;0.60;;;16.20;64.40;;;;;;5018256;28;20042;-76
2022/06/19 01:32:35;;;;;;;4.03;0.80;;;16.10;64.30;;;;;;5005013;28;20501;-74
2022/06/19 01:35:02;;;;;;;4.88;1.00;;;16.10;64.30;;;;;;5021453;28;20098;-75
2022/06/19 01:37:30;;;;;;;3.25;0.68;;;16.10;64.30;;;;;;5015918;28;20096;-75
2022/06/19 01:40:03;;;;;;;2.38;0.95;;;16.10;64.30;;;;;;5017719;28;20100;-76
2022/06/19 01:42:30;;;;;;;2.17;0.77;;;16.10;64.10;;;;;;5022220;28;20038;-76
2022/06/19 01:44:58;;;;;;;1.65;0.60;;;16.10;64.10;;;;;;5019819;28;20037;-75
2022/06/19 01:47:25;;;;;;;1.10;0.50;;;16.10;64.10;;;;;;5019889;28;20034;-75
2022/06/19 01:49:53;;;;;;;1.58;0.47;;;16.00;64.00;;;;;;5019660;28;20037;-75
2022/06/19 01:52:20;;;;;;;1.98;0.57;;;16.00;63.90;;;;;;5021145;28;20101;-75
2022/06/19 01:54:58;;;;;;;1.65;0.57;;;16.00;63.80;;;;;;5002523;28;20041;-75
2022/06/19 01:57:24;;;;;;;1.15;0.60;;;16.00;63.60;;;;;;5021825;28;20046;-75
2022/06/19 01:59:51;;;;;;;1.90;0.60;;;16.00;63.50;;;;;;5018851;28;20037;-75
2022/06/19 02:02:17;;;;;;;2.97;0.50;;;15.90;63.30;;;;;;5018904;28;20056;-74
2022/06/19 02:04:44;;;;;;;1.77;0.40;;;16.00;63.20;;;;;;5008698;28;20033;-75
2022/06/19 02:07:16;;;;;;;0.77;0.50;;;16.00;63.10;;;;;;5024134;28;20034;-76
2022/06/19 02:09:44;;;;;;;0.73;0.52;;;16.00;63.00;;;;;;5021990;28;20034;-75
2022/06/19 02:12:10;;;;;;;0.50;0.50;;;15.90;62.80;;;;;;5024987;28;20038;-75
2022/06/19 02:14:36;;;;;;;1.63;0.68;;;15.90;62.70;;;;;;5025044;28;20058;-75
2022/06/19 02:17:08;;;;;;;1.20;0.60;;;15.90;62.60;;;;;;5005207;28;20049;-75
2022/06/19 02:19:34;;;;;;;2.80;0.60;;;15.90;62.40;;;;;;5019633;28;20049;-75
2022/06/19 02:22:00;;;;;;;0.38;0.38;;;15.90;62.20;;;;;;5022549;28;20393;-74
2022/06/19 02:24:27;;;;;;;0.93;0.50;;;16.00;62.00;;;;;;5019901;28;20046;-75
2022/06/19 02:26:56;;;;;;;1.40;0.50;;;16.00;61.90;;;;;;5001766;28;20066;-75
2022/06/19 02:29:22;;;;;;;0.50;0.38;;;16.00;61.80;;;;;;5002003;28;20037;-75
2022/06/19 02:31:52;;;;;;;0.70;0.60;;;15.90;61.70;;;;;;4984099;28;20038;-75
2022/06/19 02:34:32;;;;;;;2.05;0.50;;;15.90;61.50;;;;;;5002723;28;20038;-75
2022/06/19 02:37:01;;;;;;;0.40;0.40;;;15.90;61.60;;;;;;5017666;28;20485;-74
2022/06/19 02:39:43;;;;;;;0.75;0.40;;;15.80;61.50;;;;;;4998646;28;20091;-75
2022/06/19 02:42:38;;;;;;;1.33;0.40;;;15.80;61.50;;;;;;5000475;28;20042;-75
2022/06/19 02:45:10;;;;;;;0.82;0.28;;;15.80;61.60;;;;;;5000506;28;20034;-75
2022/06/19 02:47:37;;;;;;;1.35;0.50;;;15.70;61.60;;;;;;5015134;28;20030;-74
2022/06/19 02:50:05;;;;;;;1.58;0.50;;;15.70;61.60;;;;;;4998402;28;20040;-74
2022/06/19 02:52:31;;;;;;;1.02;0.40;;;15.70;61.60;;;;;;4979519;28;20048;-76
2022/06/19 02:54:57;;;;;;;1.92;0.50;;;15.80;61.70;;;;;;4980836;28;20109;-75
2022/06/19 02:57:24;;;;;;;1.50;0.50;;;15.70;61.70;;;;;;5016078;28;20033;-74
2022/06/19 02:59:50;;;;;;;2.13;0.60;;;15.70;61.70;;;;;;5016904;28;20069;-75
2022/06/19 03:02:17;;;;;;;0.43;0.40;;;15.70;61.70;;;;;;5012618;28;20478;-75
2022/06/19 03:04:53;;;;;;;1.35;0.50;;;15.70;61.70;;;;;;5018647;28;20482;-75
2022/06/19 03:07:19;;;;;;;1.35;0.50;;;15.70;61.70;;;;;;4981845;28;20088;-76
2022/06/19 03:09:45;;;;;;;0.60;0.30;;;15.70;61.70;;;;;;5015414;28;20501;-75
2022/06/19 03:12:11;;;;;;;1.13;0.55;;;15.70;61.70;;;;;;4997728;28;20026;-75
2022/06/19 03:14:37;;;;;;;1.17;0.43;;;15.60;61.70;;;;;;4980911;28;20030;-76
2022/06/19 03:17:03;;;;;;;1.00;0.60;;;15.60;61.80;;;;;;5016257;28;20045;-75
2022/06/19 03:19:29;;;;;;;0.30;0.30;;;15.60;61.90;;;;;;5014336;28;20474;-75
2022/06/19 03:21:54;;;;;;;0.63;0.40;;;15.60;61.90;;;;;;5017613;28;20108;-74
2022/06/19 03:24:20;;;;;;;1.48;0.65;;;15.50;61.90;;;;;;5019860;28;20100;-74
2022/06/19 03:26:46;;;;;;;1.27;0.60;;;15.60;62.00;;;;;;4999711;28;20063;-74
2022/06/19 03:29:12;;;;;;;0.73;0.47;;;15.50;62.00;;;;;;4998971;28;20063;-75
2022/06/19 03:31:38;;;;;;;1.17;0.65;;;15.50;62.00;;;;;;4999865;28;20041;-75
2022/06/19 03:34:04;;;;;;;0.88;0.40;;;15.60;62.10;;;;;;5019185;28;20030;-75
2022/06/19 03:36:30;;;;;;;0.68;0.40;;;15.50;62.00;;;;;;4998694;28;20038;-76
2022/06/19 03:38:56;;;;;;;0.40;0.30;;;15.50;62.00;;;;;;5000136;28;21098;-75
2022/06/19 03:41:22;;;;;;;2.05;0.60;;;15.50;62.00;;;;;;5018401;28;20045;-75
2022/06/19 03:43:47;;;;;;;0.88;0.30;;;15.50;62.00;;;;;;5001921;28;20038;-75
2022/06/19 03:46:16;;;;;;;0.95;0.38;;;15.40;62.00;;;;;;4997861;28;20077;-75
2022/06/19 03:48:45;;;;;;;0.75;0.40;;;15.40;61.90;;;;;;5016576;28;20065;-75
2022/06/19 03:51:12;;;;;;;1.23;0.30;;;15.40;62.00;;;;;;5016957;28;20034;-75
2022/06/19 03:53:38;;;;;;;1.20;0.40;;;15.40;62.00;;;;;;4985655;28;20099;-75
2022/06/19 03:56:05;;;;;;;1.85;0.52;;;15.30;62.10;;;;;;5021952;28;20098;-75
2022/06/19 03:58:46;;;;;;;0.95;0.43;;;15.40;62.10;;;;;;5019688;28;20121;-75
2022/06/19 04:01:17;;;;;;;0.73;0.47;;;15.40;62.20;;;;;;4999546;28;20434;-74
2022/06/19 04:03:43;;;;;;;0.80;0.35;;;15.40;62.30;;;;;;5016671;28;20108;-75
2022/06/19 04:06:10;;;;;;;0.50;0.30;;;15.40;62.30;;;;;;5013855;28;20045;-73
2022/06/19 04:08:37;;;;;;;1.73;0.60;;;15.30;62.20;;;;;;5013886;28;20034;-75
2022/06/19 04:11:04;;;;;;;1.27;0.52;;;15.40;62.40;;;;;;4995331;28;20030;-75
2022/06/19 04:13:33;;;;;;;1.52;0.40;;;15.40;62.50;;;;;;5013023;28;20041;-76
2022/06/19 04:15:59;;;;;;;0.43;0.30;;;15.40;62.50;;;;;;4996316;28;20038;-75
2022/06/19 04:18:25;;;;;;;0.85;0.40;;;15.40;62.50;;;;;;5012943;28;20037;-75
2022/06/19 04:20:51;;;;;;;0.30;0.30;;;15.40;62.50;;;;;;4994879;28;20092;-74
2022/06/19 04:23:17;;;;;;;1.67;0.40;;;15.40;62.40;;;;;;5011903;28;20042;-75
2022/06/19 04:25:44;;;;;;;0.52;0.30;;;15.50;62.40;;;;;;5012448;28;20052;-75
2022/06/19 04:28:10;;;;;;;0.85;0.40;;;15.50;62.40;;;;;;5012170;28;20095;-75
2022/06/19 04:30:37;;;;;;;1.30;0.32;;;15.50;62.40;;;;;;5012175;28;20034;-75
2022/06/19 04:33:03;;;;;;;2.47;0.60;;;15.50;62.40;;;;;;4996004;28;20132;-76
2022/06/19 04:35:29;;;;;;;2.28;0.47;;;15.50;62.30;;;;;;5012044;28;20034;-76
2022/06/19 04:37:55;;;;;;;0.75;0.30;;;15.50;62.30;;;;;;4993427;28;20540;-75
2022/06/19 04:40:21;;;;;;;0.57;0.40;;;15.60;62.30;;;;;;4995466;28;20042;-75
2022/06/19 04:42:46;;;;;;;0.75;0.40;;;15.70;62.30;;;;;;4997116;28;20044;-76
2022/06/19 04:45:12;;;;;;;1.17;0.57;;;15.60;62.10;;;;;;5014731;28;20410;-76
2022/06/19 04:47:39;;;;;;;1.45;0.50;;;15.60;62.80;;;;;;5015331;28;20167;-76
2022/06/19 04:50:06;;;;;;;2.75;0.40;;;15.60;62.20;;;;;;5014554;28;20120;-76
2022/06/19 04:52:31;;;;;;;1.58;0.43;;;15.60;62.20;;;;;;5012994;28;20077;-75
2022/06/19 04:54:57;;;;;;;0.85;0.50;;;15.60;62.20;;;;;;4993127;28;20081;-75
2022/06/19 04:57:23;;;;;;;0.30;0.20;;;15.70;62.20;;;;;;5014448;28;20041;-76
2022/06/19 04:59:49;;;;;;;1.15;0.40;;;15.70;62.10;;;;;;4994995;28;20077;-76
2022/06/19 05:02:15;;;;;;;1.67;0.52;;;15.80;62.00;;;;;;5015161;28;20406;-75
2022/06/19 05:04:40;;;;;;;1.05;0.40;;;15.80;61.80;;;;;;5015982;28;20038;-75
2022/06/19 05:07:07;;;;;;;1.15;0.45;;;15.90;61.70;;;;;;4982913;28;20481;-76
2022/06/19 05:09:33;;;;;;;1.17;0.45;;;15.90;61.60;;;;;;5015572;28;20042;-76
2022/06/19 05:11:59;;;;;;;1.63;0.30;;;16.00;61.60;;;;;;5016281;28;20049;-75
2022/06/19 05:14:24;;;;;;;1.75;0.40;;;16.00;61.50;;;;;;5015874;28;20041;-75
2022/06/19 05:16:50;;;;;;;1.25;0.32;;;16.10;61.50;;;;;;5015748;28;20034;-75
2022/06/19 05:19:16;;;;;;;1.45;0.45;;;16.10;61.50;;;;;;4996783;28;20038;-79
2022/06/19 05:21:42;;;;;;;1.35;0.30;;;16.10;61.40;;;;;;5016929;28;20055;-77
2022/06/19 05:24:08;;;;;;;2.22;0.55;;;16.20;61.30;;;;;;5014893;28;20029;-76
2022/06/19 05:26:35;;;;;;;1.00;0.40;;;16.20;61.30;;;;;;5014686;28;20069;-76
2022/06/19 05:29:02;;;;;;;1.50;0.30;;;16.30;61.30;;;;;;5014490;28;20123;-76
2022/06/19 05:31:28;;;;;;;2.25;0.52;;;16.40;61.30;;;;;;5014113;28;20117;-75
2022/06/19 05:33:55;;;;;;;0.93;0.40;;;16.40;61.20;;;;;;4996274;28;20140;-77
2022/06/19 05:36:21;;;;;;;0.80;0.20;;;16.50;61.10;;;;;;5013726;28;20092;-77
2022/06/19 05:38:47;;;;;;;0.30;0.22;;;16.70;61.10;;;;;;5013983;28;20053;-74
2022/06/19 05:41:14;;;;;;;0.32;0.30;;;16.80;60.80;;;;;;4996231;28;20095;-74
2022/06/19 05:43:40;;;;;;;0.80;0.35;;;17.00;60.80;;;;;;4996120;28;20084;-74
2022/06/19 05:46:11;;;;;;;1.05;0.30;;;17.10;60.50;;;;;;4996220;28;20510;-75
2022/06/19 05:48:37;;;;;;;0.90;0.32;;;17.10;60.30;;;;;;5014969;28;20474;-75
2022/06/19 05:51:06;;;;;;;0.45;0.35;;;17.20;60.10;;;;;;5013929;28;20177;-75
2022/06/19 05:53:35;;;;;;;0.98;0.28;;;17.30;60.10;;;;;;4980008;28;20042;-75
2022/06/19 05:56:03;;;;;;;1.77;0.38;;;17.40;60.00;;;;;;5013618;28;20053;-75
2022/06/19 05:58:29;;;;;;;1.65;0.40;;;17.50;60.00;;;;;;4996493;28;20057;-76
2022/06/19 06:00:55;;;;;;;0.45;0.30;;;17.60;59.70;;;;;;4997926;28;21355;-76
2022/06/19 06:03:23;;;;;;;0.40;0.30;;;17.80;59.70;;;;;;5013712;28;20034;-77
2022/06/19 06:05:49;;;;;;;0.43;0.30;;;17.90;59.60;;;;;;5013776;28;20038;-76
2022/06/19 06:08:16;;;;;;;0.65;0.30;;;17.80;59.40;;;;;;4995373;28;20026;-76
2022/06/19 06:10:47;;;;;;;0.55;0.32;;;17.90;59.40;;;;;;4995293;28;20084;-76
2022/06/19 06:13:13;;;;;;;0.95;0.30;;;17.90;59.40;;;;;;4995040;28;20040;-77
2022/06/19 06:15:39;;;;;;;0.30;0.30;;;18.00;59.50;;;;;;4979867;28;20088;-76
2022/06/19 06:18:05;;;;;;;0.65;0.30;;;18.00;59.40;;;;;;4995870;28;20053;-76
2022/06/19 06:20:31;;;;;;;0.52;0.30;;;18.10;59.30;;;;;;5013789;28;20351;-77
2022/06/19 06:22:57;;;;;;;0.60;0.30;;;18.10;59.10;;;;;;5013106;28;20460;-76
2022/06/19 06:25:23;;;;;;;1.02;0.30;;;18.20;59.00;;;;;;5013610;28;20025;-76
2022/06/19 06:27:50;;;;;;;0.55;0.55;;;18.20;58.70;;;;;;5013328;28;20034;-78
2022/06/19 06:30:16;;;;;;;0.70;0.38;;;18.30;58.80;;;;;;5013165;28;20041;-77
2022/06/19 06:32:42;;;;;;;0.40;0.22;;;18.20;58.80;;;;;;4978647;28;20049;-76
2022/06/19 06:35:08;;;;;;;0.20;0.20;;;18.10;58.90;;;;;;4994767;28;20042;-77
2022/06/19 06:37:34;;;;;;;0.20;0.20;;;18.00;59.00;;;;;;5013231;28;20065;-77
2022/06/19 06:40:00;;;;;;;0.35;0.20;;;18.00;59.10;;;;;;5012875;28;20131;-76
2022/06/19 06:42:26;;;;;;;0.60;0.30;;;18.00;59.10;;;;;;4994364;28;20043;-76
2022/06/19 06:44:52;;;;;;;0.57;0.35;;;17.90;59.10;;;;;;5013002;28;20394;-76
2022/06/19 06:47:17;;;;;;;0.95;0.40;;;17.90;59.00;;;;;;5012994;28;20100;-76
2022/06/19 06:49:43;;;;;;;1.35;0.60;;;17.90;58.90;;;;;;4994372;28;20039;-76
2022/06/19 06:52:09;;;;;;;0.20;0.20;;;17.80;58.90;;;;;;4995446;28;20042;-76
2022/06/19 06:54:37;;;;;;;1.88;0.30;;;17.90;58.90;;;;;;4995022;28;20454;-76
2022/06/19 06:57:04;;;;;;;0.55;0.40;;;17.70;58.80;;;;;;5012984;28;20096;-76
2022/06/19 06:59:30;;;;;;;0.32;0.30;;;17.70;58.90;;;;;;5012615;28;20038;-76
2022/06/19 07:01:56;;;;;;;0.30;0.30;;;17.70;59.10;;;;;;5012849;28;20460;-76
2022/06/19 07:04:22;;;;;;;0.20;0.20;;;17.60;59.20;;;;;;4995246;28;20117;-76
2022/06/19 07:06:47;;;;;;;1.88;0.40;;;17.40;59.30;;;;;;5012934;28;20029;-76
2022/06/19 07:09:13;;;;;;;1.17;0.50;;;17.30;59.60;;;;;;5012266;28;20057;-76
2022/06/19 07:11:43;;;;;;;0.47;0.40;;;17.30;59.80;;;;;;5013082;28;20033;-75
2022/06/19 07:14:09;;;;;;;0.38;0.25;;;17.10;59.80;;;;;;5012399;28;20034;-75
2022/06/19 07:16:36;;;;;;;0.70;0.40;;;17.20;60.10;;;;;;4994995;28;20053;-75
2022/06/19 07:19:02;;;;;;;0.30;0.30;;;17.00;60.20;;;;;;5011985;28;20033;-75
2022/06/19 07:21:28;;;;;;;1.23;0.47;;;16.90;60.50;;;;;;5013509;28;20033;-76
2022/06/19 07:23:54;;;;;;;0.35;0.20;;;16.80;60.80;;;;;;4986435;28;20034;-76
2022/06/19 07:26:22;;;;;;;1.60;0.50;;;16.70;61.60;;;;;;5018557;28;20045;-76
2022/06/19 07:28:48;;;;;;;0.30;0.30;;;16.70;61.20;;;;;;4986258;28;20121;-76
2022/06/19 07:31:14;;;;;;;0.90;0.30;;;16.50;61.50;;;;;;5017545;28;20030;-77
2022/06/19 07:33:40;;;;;;;1.48;0.60;;;16.50;61.90;;;;;;4995186;28;20034;-76
2022/06/19 07:36:09;;;;;;;1.58;0.70;;;16.40;62.90;;;;;;4997153;28;20034;-76
2022/06/19 07:38:34;;;;;;;1.42;0.43;;;16.20;62.50;;;;;;4995881;28;20049;-76
2022/06/19 07:41:00;;;;;;;1.70;0.40;;;16.10;62.90;;;;;;5015337;28;20351;-76
2022/06/19 07:43:27;;;;;;;1.45;0.40;;;16.10;63.40;;;;;;5014156;28;20053;-76
2022/06/19 07:45:53;;;;;;;0.65;0.40;;;16.00;63.60;;;;;;4982040;28;20038;-76
2022/06/19 07:51:04;;;;;;;1.77;0.52;;;15.90;64.00;;;;;;5014806;28;20030;-77
2022/06/19 07:53:30;;;;;;;0.52;0.30;;;15.90;64.10;;;;;;4981773;28;20070;-77
2022/06/19 07:55:56;;;;;;;0.57;0.30;;;15.90;64.30;;;;;;5026157;28;20021;-78
2022/06/19 07:58:22;;;;;;;0.93;0.30;;;15.90;64.60;;;;;;5016280;28;20156;-75
2022/06/19 08:00:47;;;;;;;0.20;0.20;;;15.90;64.70;;;;;;4994527;28;20092;-75
2022/06/19 08:03:14;;;;;;;1.75;0.50;;;15.80;64.90;;;;;;5011952;28;20054;-75
2022/06/19 08:05:41;;;;;;;1.17;0.45;;;15.90;65.30;;;;;;5012519;28;20478;-76
2022/06/19 08:08:18;;;;;;;0.95;0.32;;;15.70;65.50;;;;;;4994336;28;20085;-75
2022/06/19 08:10:48;;;;;;;1.13;0.35;;;15.70;65.90;;;;;;5011633;28;20421;-76
2022/06/19 08:13:14;;;;;;;1.45;0.30;;;15.60;66.10;;;;;;4992077;28;20034;-77
2022/06/19 08:15:41;;;;;;;1.00;0.32;;;15.50;66.40;;;;;;5011484;28;20041;-76
2022/06/19 08:18:09;;;;;;;0.55;0.20;;;15.50;66.70;;;;;;4994030;28;20603;-75
2022/06/19 08:20:35;;;;;;;0.95;0.25;;;15.50;66.90;;;;;;5011512;28;20030;-75
2022/06/19 08:23:03;;;;;;;1.27;0.47;;;15.50;67.10;;;;;;5011589;28;20061;-76
2022/06/19 08:25:29;;;;;;;1.35;0.30;;;15.40;67.30;;;;;;5011015;28;20045;-74
2022/06/19 08:27:55;;;;;;;0.80;0.30;;;15.30;67.50;;;;;;4993947;28;20046;-75
2022/06/19 08:30:26;;;;;;;1.08;0.40;;;15.20;67.90;;;;;;5011337;28;20030;-75
2022/06/19 08:32:53;;;;;;;0.88;0.50;;;15.20;68.20;;;;;;5014828;28;20105;-75
2022/06/19 08:35:19;;;;;;;1.77;0.50;;;15.10;68.40;;;;;;5014677;28;20121;-75
2022/06/19 08:37:48;;;;;;;2.00;0.50;;;14.90;68.60;;;;;;5014813;28;20030;-75
2022/06/19 08:40:45;;;;;;;0.73;0.20;;;15.00;68.90;;;;;;5014889;28;20037;-76
2022/06/19 08:43:27;;;;;;;0.90;0.47;;;15.10;69.10;;;;;;5014501;28;20401;-76
2022/06/19 08:46:21;;;;;;;0.70;0.30;;;15.10;68.90;;;;;;5015083;28;20040;-76
2022/06/19 08:49:07;;;;;;;0.52;0.30;;;15.10;68.90;;;;;;5012711;28;20030;-76
2022/06/19 08:51:55;;;;;;;0.90;0.38;;;15.10;69.10;;;;;;5014613;28;20113;-77
2022/06/19 08:54:43;;;;;;;1.02;0.30;;;15.00;69.20;;;;;;5014727;28;20152;-77
2022/06/19 08:57:42;;;;;;;0.50;0.50;;;15.00;69.30;;;;;;5014748;28;20468;-77
2022/06/19 09:00:21;;;;;;;0.45;0.30;;;15.00;69.50;;;;;;5014302;28;20045;-77
2022/06/19 09:03:06;;;;;;;1.65;0.47;;;15.00;69.40;;;;;;4995303;28;20054;-77
2022/06/19 09:05:59;;;;;;;1.92;0.40;;;15.00;69.40;;;;;;5014446;28;20516;-77
2022/06/19 09:08:50;;;;;;;0.68;0.30;;;15.10;69.70;;;;;;5014338;28;20512;-78
2022/06/19 09:11:34;;;;;;;1.45;0.50;;;15.00;69.60;;;;;;5017838;28;20030;-76
2022/06/19 09:14:25;;;;;;;0.90;0.40;;;15.00;69.70;;;;;;4982089;28;20037;-77
2022/06/19 09:17:08;;;;;;;0.47;0.28;;;15.00;69.60;;;;;;5013129;28;20053;-78
2022/06/19 09:19:49;;;;;;;0.60;0.40;;;15.10;69.90;;;;;;4982260;28;20037;-79
2022/06/19 09:22:47;;;;;;;0.55;0.30;;;15.10;69.80;;;;;;5016108;28;20494;-77
2022/06/19 09:25:37;;;;;;;0.40;0.40;;;15.20;69.70;;;;;;4997375;28;20041;-78
2022/06/19 09:28:27;;;;;;;1.38;0.40;;;15.40;69.60;;;;;;5001236;28;20026;-79
2022/06/19 09:31:08;;;;;;;0.70;0.40;;;15.60;69.10;;;;;;5003232;28;20030;-79
2022/06/19 09:33:45;;;;;;;;;;;15.60;69.00;;;;;;5014428;28;20056;-78
2022/06/19 09:36:25;;;;;;;0.35;0.20;;;15.70;69.00;;;;;;4999369;28;19960;-79
2022/06/19 09:39:19;;;;;;;0.68;0.40;;;15.90;68.50;;;;;;4986480;28;20049;-79
2022/06/19 09:42:30;;;;;;;0.80;0.50;;;16.00;68.40;;;;;;4942966;28;20094;-85
2022/06/19 09:45:15;;;;;;;0.30;0.30;;;16.10;68.20;;;;;;4971849;28;20077;-84
2022/06/19 09:48:04;;;;;;;0.25;0.25;;;16.20;68.00;;;;;;4978100;28;20049;-80
2022/06/19 09:50:42;;;;;;;0.45;0.25;;;16.40;68.00;;;;;;4974768;28;20049;-78
2022/06/19 09:53:30;;;;;;;0.50;0.40;;;16.60;67.70;;;;;;4940466;28;20466;-79
2022/06/19 09:56:04;;;;;;;0.57;0.40;;;16.90;67.30;;;;;;4958189;28;20384;-78
2022/06/19 09:58:45;;;;;;;0.63;0.30;;;17.20;66.70;;;;;;4977270;28;20066;-82
2022/06/19 10:01:15;;;;;;;0.30;0.30;;;17.40;66.30;;;;;;4972958;28;20113;-82
2022/06/19 10:03:51;;;;;;;0.75;0.38;;;17.60;66.00;;;;;;4939513;28;20039;-85
2022/06/19 10:06:34;;;;;;;0.50;0.30;;;17.70;65.40;;;;;;4950731;28;20034;-79
2022/06/19 10:09:25;;;;;;;1.23;0.35;;;17.80;65.20;;;;;;4966881;28;20054;-80
2022/06/19 10:12:03;;;;;;;0.80;0.45;;;17.80;65.30;;;;;;4953396;28;20043;-83
2022/06/19 10:14:39;;;;;;;0.40;0.40;;;17.90;65.40;;;;;;4972782;28;20047;-81
2022/06/19 10:17:31;;;;;;;0.32;0.28;;;18.00;65.30;;;;;;4972876;28;20511;-78
2022/06/19 10:20:20;;;;;;;0.52;0.30;;;18.10;65.10;;;;;;4974021;28;20082;-76
2022/06/19 10:23:39;;;;;;;0.73;0.40;;;18.20;64.90;;;;;;5000759;28;20046;-87
2022/06/19 10:26:28;;;;;;;0.65;0.30;;;18.20;64.60;;;;;;5014379;28;20034;-80
2022/06/19 10:29:07;;;;;;;0.35;0.32;;;18.30;64.60;;;;;;5011244;28;20088;-79
2022/06/19 10:31:55;;;;;;;0.20;0.20;;;18.40;64.60;;;;;;4980734;28;20226;-78
2022/06/19 10:34:52;;;;;;;0.20;0.20;;;18.50;64.60;;;;;;4998336;28;20096;-77
2022/06/19 10:37:39;;;;;;;0.50;0.20;;;18.50;64.40;;;;;;4998590;28;20038;-78
2022/06/19 10:40:24;;;;;;;1.35;0.40;;;18.70;64.20;;;;;;5013994;28;20038;-79
2022/06/19 10:46:08;;;;;;;2.00;0.50;;;18.70;64.10;;;;;;4961263;28;20153;-79
2022/06/19 10:48:46;;;;;;;0.30;0.30;;;18.70;64.10;;;;;;4973892;28;20050;-83
2022/06/19 10:51:44;;;;;;;0.30;0.30;;;18.80;64.10;;;;;;4939631;28;20074;-79
2022/06/19 10:54:53;;;;;;;0.30;0.30;;;18.80;63.90;;;;;;4957716;28;20857;-81
2022/06/19 10:57:37;;;;;;;1.27;0.30;;;19.20;63.60;;;;;;4944503;28;20057;-83
2022/06/19 11:00:05;;;;;;;0.90;0.40;;;19.60;63.20;;;;;;4937180;28;20039;-76
2022/06/19 11:06:00;;;;;;;1.48;0.50;;;19.70;62.70;;;;;;4953042;28;20455;-84
2022/06/19 11:08:28;;;;;;;0.40;0.30;;;19.70;62.90;;;;;;4951664;28;20119;-83
2022/06/19 11:10:58;;;;;;;0.60;0.40;;;19.60;63.10;;;;;;4951870;28;20046;-85
2022/06/19 11:14:02;;;;;;;0.40;0.35;;;19.50;63.30;;;;;;4952277;28;20059;-83
2022/06/19 11:16:30;;;;;;;0.70;0.40;;;19.50;63.40;;;;;;4969137;28;20455;-82
2022/06/19 11:18:57;;;;;;;0.93;0.55;;;19.60;63.30;;;;;;4976792;28;20057;-87
2022/06/19 11:21:29;;;;;;;2.72;0.60;;;19.70;63.20;;;;;;4957829;28;20094;-84
2022/06/19 11:23:59;;;;;;;1.08;0.40;;;19.90;63.10;;;;;;4974661;28;20046;-85
2022/06/19 11:26:35;;;;;;;0.95;0.65;;;20.00;62.90;;;;;;4990549;28;20056;-82
2022/06/19 11:29:19;;;;;;;1.10;0.50;;;19.90;62.80;;;;;;4974588;28;20470;-82
2022/06/19 11:32:05;;;;;;;0.80;0.43;;;20.10;63.00;;;;;;4990313;28;20046;-83
2022/06/19 11:34:48;;;;;;;0.60;0.60;;;20.10;63.10;;;;;;5012155;28;20044;-82
2022/06/19 11:37:30;;;;;;;1.55;0.68;;;20.10;62.90;;;;;;4995007;28;20057;-82
2022/06/19 11:40:18;;;;;;;2.25;0.60;;;20.00;63.10;;;;;;4977920;28;20046;-80
2022/06/19 11:42:49;;;;;;;0.75;0.32;;;19.90;63.50;;;;;;4996580;28;20054;-82
2022/06/19 11:45:36;;;;;;;0.95;0.32;;;20.00;63.90;;;;;;4994994;28;20033;-80
2022/06/19 11:48:07;;;;;;;0.32;0.32;;;20.10;63.80;;;;;;4980089;28;20056;-82
2022/06/19 11:50:40;;;;;;;;;;;20.30;63.50;;;;;;4994826;28;20363;-83
2022/06/19 11:53:22;;;;;;;0.80;0.50;;;20.40;63.20;;;;;;5010030;28;19917;-82
2022/06/19 11:55:51;;;;;;;0.77;0.43;;;20.20;63.20;;;;;;4994857;28;20100;-83
2022/06/19 11:58:35;;;;;;;1.05;0.60;;;20.10;63.50;;;;;;4978662;28;20041;-80
2022/06/19 12:01:14;;;;;;;1.75;0.63;;;20.10;63.90;;;;;;5013289;28;20563;-82
2022/06/19 12:03:53;;;;;;;1.55;0.70;;;20.10;64.00;;;;;;4994804;28;20057;-82
2022/06/19 12:06:36;;;;;;;0.80;0.47;;;20.20;63.90;;;;;;4995936;28;20038;-82
2022/06/19 12:09:04;;;;;;;0.82;0.47;;;20.40;63.90;;;;;;5016255;28;20501;-83
2022/06/19 12:11:38;;;;;;;0.93;0.43;;;20.40;63.60;;;;;;4998091;28;20105;-81
2022/06/19 12:14:10;;;;;;;1.13;0.50;;;20.30;63.60;;;;;;4998469;28;20121;-83
2022/06/19 12:16:37;;;;;;;0.63;0.50;;;20.20;64.00;;;;;;4997939;28;20065;-81
2022/06/19 12:19:29;;;;;;;0.70;0.60;;;20.10;64.20;;;;;;5015944;28;20129;-83
2022/06/19 12:22:03;;;;;;;0.85;0.50;;;20.20;64.20;;;;;;5012396;28;20041;-81
2022/06/19 12:24:43;;;;;;;1.10;0.68;;;20.20;64.30;;;;;;5021682;28;20046;-80
2022/06/19 12:27:16;;;;;;;1.85;0.70;;;20.10;64.30;;;;;;5030776;28;20041;-77
2022/06/19 12:29:49;;;;;;;0.80;0.50;;;20.00;64.70;;;;;;5002667;28;20050;-78
2022/06/19 12:32:26;;;;;;;0.88;0.55;;;19.80;64.80;;;;;;4999776;28;20050;-81
2022/06/19 12:34:56;;;;;;;0.82;0.60;;;19.70;65.10;;;;;;4982902;28;20052;-80
2022/06/19 12:37:25;;;;;;;1.97;0.63;;;19.60;65.30;;;;;;4999650;28;20033;-79
2022/06/19 12:39:51;;;;;;;2.25;0.75;;;19.50;65.60;;;;;;5002073;28;20272;-79
2022/06/19 12:42:33;;;;;;;0.52;0.52;;;19.40;65.80;;;;;;5017346;28;20128;-81
2022/06/19 12:45:35;;;;;;;2.20;1.15;;;19.30;66.20;;;;;;4986765;28;20034;-79
2022/06/19 12:48:28;;;;;;;0.75;0.60;;;19.10;66.40;;;;;;4982210;28;20044;-79
2022/06/19 12:51:14;;;;;;;1.08;0.80;;;18.80;66.90;;;;;;5016944;28;20065;-82
2022/06/19 12:54:07;;;;;;;1.38;0.82;;;18.60;67.20;;;;;;5017486;28;20046;-79
2022/06/19 12:56:53;;;;;;;1.35;0.80;;;18.60;67.50;;;;;;4983641;28;20026;-80
2022/06/19 12:59:41;;;;;;;1.67;0.77;;;18.60;67.50;;;;;;4982693;28;20038;-77
2022/06/19 13:02:31;;;;;;;1.48;0.60;;;18.70;67.30;;;;;;5016008;28;20041;-81
2022/06/19 13:05:23;;;;;;;1.05;0.70;;;19.10;66.70;;;;;;5014878;28;20061;-79
2022/06/19 13:08:07;;;;;;;1.33;0.70;;;19.30;66.80;;;;;;5002756;28;20034;-79
2022/06/19 13:10:44;;;;;;;0.52;0.40;;;19.40;65.70;;;;;;4998875;28;20026;-79
2022/06/19 13:13:39;;;;;;;0.98;0.63;;;19.60;65.40;;;;;;4997795;28;20081;-80
2022/06/19 13:16:17;;;;;;;0.70;0.45;;;19.60;65.00;;;;;;4999463;28;20034;-82
2022/06/19 13:18:55;;;;;;;2.00;0.60;;;19.70;64.80;;;;;;5013097;28;20037;-79
2022/06/19 13:21:39;;;;;;;0.47;0.40;;;19.70;64.80;;;;;;5014615;28;20046;-79
2022/06/19 13:24:22;;;;;;;1.45;0.70;;;19.70;64.70;;;;;;5015425;28;20042;-77
2022/06/19 13:27:16;;;;;;;0.47;0.43;;;19.70;64.70;;;;;;5014834;28;20045;-78